sensor_id;sensor_type;location;lat;lon;timestamp;P1;durP1;ratioP1;P2;durP2;ratioP2
7605;SDS011;3844;53.360;9.738;2022-08-01T00:00:09;19.55;;;14.32;;
7605;SDS011;3844;53.360;9.738;2022-08-01T00:02:11;17.50;;;13.23;;
7605;SDS011;3844;53.360;9.738;2022-08-01T00:04:11;16.95;;;12.80;;
7605;SDS011;3844;53.360;9.738;2022-08-01T00:06:12;23.40;;;17.70;;
7605;SDS011;3844;53.360;9.738;2022-08-01T00:08:13;22.95;;;16.60;;
7605;SDS011;3844;53.360;9.738;2022-08-01T00:10:14;18.85;;;14.43;;
7605;SDS011;3844;53.360;9.738;2022-08-01T00:12:16;18.70;;;14.55;;
7605;SDS011;3844;53.360;9.738;2022-08-01T00:14:16;22.77;;;16.50;;
7605;SDS011;3844;53.360;9.738;2022-08-01T00:16:17;19.67;;;14.18;;
7605;SDS011;3844;53.360;9.738;2022-08-01T00:18:18;24.02;;;17.52;;
7605;SDS011;3844;53.360;9.738;2022-08-01T00:20:19;19.73;;;15.80;;
7605;SDS011;3844;53.360;9.738;2022-08-01T00:22:19;23.45;;;18.00;;
7605;SDS011;3844;53.360;9.738;2022-08-01T00:24:20;21.13;;;14.82;;
7605;SDS011;3844;53.360;9.738;2022-08-01T00:26:21;27.88;;;21.73;;
7605;SDS011;3844;53.360;9.738;2022-08-01T00:28:22;21.80;;;16.77;;
7605;SDS011;3844;53.360;9.738;2022-08-01T00:30:23;21.08;;;15.48;;
7605;SDS011;3844;53.360;9.738;2022-08-01T00:32:24;27.10;;;19.75;;
7605;SDS011;3844;53.360;9.738;2022-08-01T00:34:24;21.65;;;16.02;;
7605;SDS011;3844;53.360;9.738;2022-08-01T00:36:25;20.15;;;14.93;;
7605;SDS011;3844;53.360;9.738;2022-08-01T00:38:26;19.83;;;13.43;;
7605;SDS011;3844;53.360;9.738;2022-08-01T00:40:26;25.45;;;18.35;;
7605;SDS011;3844;53.360;9.738;2022-08-01T00:42:27;23.27;;;17.45;;
7605;SDS011;3844;53.360;9.738;2022-08-01T00:44:28;21.33;;;15.57;;
7605;SDS011;3844;53.360;9.738;2022-08-01T00:46:28;21.67;;;16.02;;
7605;SDS011;3844;53.360;9.738;2022-08-01T00:48:29;19.50;;;15.05;;
7605;SDS011;3844;53.360;9.738;2022-08-01T00:50:30;19.27;;;15.38;;
7605;SDS011;3844;53.360;9.738;2022-08-01T00:52:31;19.30;;;14.50;;
7605;SDS011;3844;53.360;9.738;2022-08-01T00:54:33;20.15;;;15.30;;
7605;SDS011;3844;53.360;9.738;2022-08-01T00:56:34;22.42;;;16.35;;
7605;SDS011;3844;53.360;9.738;2022-08-01T00:58:35;20.85;;;15.45;;
7605;SDS011;3844;53.360;9.738;2022-08-01T01:00:36;21.58;;;15.48;;
7605;SDS011;3844;53.360;9.738;2022-08-01T01:02:37;19.52;;;14.50;;
7605;SDS011;3844;53.360;9.738;2022-08-01T01:04:38;19.95;;;13.15;;
7605;SDS011;3844;53.360;9.738;2022-08-01T01:14:05;19.08;;;13.73;;
7605;SDS011;3844;53.360;9.738;2022-08-01T01:16:14;19.17;;;13.57;;
7605;SDS011;3844;53.360;9.738;2022-08-01T01:18:22;18.58;;;12.98;;
7605;SDS011;3844;53.360;9.738;2022-08-01T01:20:34;16.02;;;12.10;;
7605;SDS011;3844;53.360;9.738;2022-08-01T01:30:06;25.05;;;16.05;;
7605;SDS011;3844;53.360;9.738;2022-08-01T01:32:09;24.70;;;16.60;;
7605;SDS011;3844;53.360;9.738;2022-08-01T01:34:22;26.45;;;15.68;;
7605;SDS011;3844;53.360;9.738;2022-08-01T01:36:24;23.42;;;16.48;;
7605;SDS011;3844;53.360;9.738;2022-08-01T01:38:28;24.55;;;16.50;;
7605;SDS011;3844;53.360;9.738;2022-08-01T01:40:33;26.67;;;16.25;;
7605;SDS011;3844;53.360;9.738;2022-08-01T01:42:34;24.48;;;15.43;;
7605;SDS011;3844;53.360;9.738;2022-08-01T01:44:36;24.65;;;16.00;;
7605;SDS011;3844;53.360;9.738;2022-08-01T01:46:38;21.25;;;13.65;;
7605;SDS011;3844;53.360;9.738;2022-08-01T01:48:40;20.02;;;12.98;;
7605;SDS011;3844;53.360;9.738;2022-08-01T01:50:45;24.02;;;14.35;;
7605;SDS011;3844;53.360;9.738;2022-08-01T01:52:47;19.05;;;13.00;;
7605;SDS011;3844;53.360;9.738;2022-08-01T01:54:49;16.13;;;11.57;;
7605;SDS011;3844;53.360;9.738;2022-08-01T01:56:51;15.85;;;11.48;;
7605;SDS011;3844;53.360;9.738;2022-08-01T01:59:00;19.55;;;12.95;;
7605;SDS011;3844;53.360;9.738;2022-08-01T02:01:02;18.35;;;11.88;;
7605;SDS011;3844;53.360;9.738;2022-08-01T02:03:05;17.58;;;11.48;;
7605;SDS011;3844;53.360;9.738;2022-08-01T02:05:08;14.45;;;10.40;;
7605;SDS011;3844;53.360;9.738;2022-08-01T02:07:12;18.65;;;12.25;;
7605;SDS011;3844;53.360;9.738;2022-08-01T02:09:16;16.23;;;10.70;;
7605;SDS011;3844;53.360;9.738;2022-08-01T02:11:19;17.90;;;11.43;;
7605;SDS011;3844;53.360;9.738;2022-08-01T02:13:21;19.88;;;12.45;;
7605;SDS011;3844;53.360;9.738;2022-08-01T02:15:22;15.05;;;10.65;;
7605;SDS011;3844;53.360;9.738;2022-08-01T02:17:24;21.85;;;13.00;;
7605;SDS011;3844;53.360;9.738;2022-08-01T02:19:25;17.83;;;11.15;;
7605;SDS011;3844;53.360;9.738;2022-08-01T02:21:32;19.40;;;12.50;;
7605;SDS011;3844;53.360;9.738;2022-08-01T02:23:38;17.77;;;11.90;;
7605;SDS011;3844;53.360;9.738;2022-08-01T02:25:50;17.67;;;12.55;;
7605;SDS011;3844;53.360;9.738;2022-08-01T02:30:05;17.92;;;11.45;;
7605;SDS011;3844;53.360;9.738;2022-08-01T02:32:10;21.05;;;12.95;;
7605;SDS011;3844;53.360;9.738;2022-08-01T02:36:25;18.15;;;12.68;;
7605;SDS011;3844;53.360;9.738;2022-08-01T02:38:27;17.08;;;11.35;;
7605;SDS011;3844;53.360;9.738;2022-08-01T02:40:32;16.77;;;11.68;;
7605;SDS011;3844;53.360;9.738;2022-08-01T02:42:36;17.85;;;11.80;;
7605;SDS011;3844;53.360;9.738;2022-08-01T02:44:43;18.42;;;11.93;;
7605;SDS011;3844;53.360;9.738;2022-08-01T02:46:50;19.45;;;12.45;;
7605;SDS011;3844;53.360;9.738;2022-08-01T02:48:58;15.40;;;10.30;;
7605;SDS011;3844;53.360;9.738;2022-08-01T02:51:02;19.15;;;11.52;;
7605;SDS011;3844;53.360;9.738;2022-08-01T02:53:04;15.52;;;9.93;;
7605;SDS011;3844;53.360;9.738;2022-08-01T02:55:07;15.07;;;9.82;;
7605;SDS011;3844;53.360;9.738;2022-08-01T02:57:11;18.45;;;10.77;;
7605;SDS011;3844;53.360;9.738;2022-08-01T02:59:13;19.13;;;11.20;;
7605;SDS011;3844;53.360;9.738;2022-08-01T03:01:17;18.25;;;11.00;;
7605;SDS011;3844;53.360;9.738;2022-08-01T03:03:20;14.23;;;9.20;;
7605;SDS011;3844;53.360;9.738;2022-08-01T03:05:21;12.90;;;8.60;;
7605;SDS011;3844;53.360;9.738;2022-08-01T03:07:22;15.57;;;9.48;;
7605;SDS011;3844;53.360;9.738;2022-08-01T03:09:25;10.13;;;7.50;;
7605;SDS011;3844;53.360;9.738;2022-08-01T03:11:28;12.27;;;7.93;;
7605;SDS011;3844;53.360;9.738;2022-08-01T03:13:30;17.67;;;9.13;;
7605;SDS011;3844;53.360;9.738;2022-08-01T03:15:33;12.98;;;7.95;;
7605;SDS011;3844;53.360;9.738;2022-08-01T03:17:37;12.55;;;8.38;;
7605;SDS011;3844;53.360;9.738;2022-08-01T03:19:42;12.88;;;8.85;;
7605;SDS011;3844;53.360;9.738;2022-08-01T03:21:45;12.48;;;8.00;;
7605;SDS011;3844;53.360;9.738;2022-08-01T03:23:49;11.77;;;7.53;;
7605;SDS011;3844;53.360;9.738;2022-08-01T03:25:56;10.27;;;6.93;;
7605;SDS011;3844;53.360;9.738;2022-08-01T03:27:59;12.60;;;8.13;;
7605;SDS011;3844;53.360;9.738;2022-08-01T03:30:02;15.18;;;8.70;;
7605;SDS011;3844;53.360;9.738;2022-08-01T03:32:05;11.82;;;8.13;;
7605;SDS011;3844;53.360;9.738;2022-08-01T03:34:06;15.15;;;9.18;;
7605;SDS011;3844;53.360;9.738;2022-08-01T03:36:08;12.20;;;8.07;;
7605;SDS011;3844;53.360;9.738;2022-08-01T03:38:10;11.93;;;8.63;;
7605;SDS011;3844;53.360;9.738;2022-08-01T03:40:17;12.57;;;7.43;;
7605;SDS011;3844;53.360;9.738;2022-08-01T03:42:24;10.10;;;7.18;;
7605;SDS011;3844;53.360;9.738;2022-08-01T03:44:31;12.93;;;7.60;;
7605;SDS011;3844;53.360;9.738;2022-08-01T03:46:40;13.15;;;7.68;;
7605;SDS011;3844;53.360;9.738;2022-08-01T03:48:46;14.63;;;8.13;;
7605;SDS011;3844;53.360;9.738;2022-08-01T03:50:50;15.05;;;8.52;;
7605;SDS011;3844;53.360;9.738;2022-08-01T03:52:51;12.50;;;7.35;;
7605;SDS011;3844;53.360;9.738;2022-08-01T03:54:55;10.95;;;6.75;;
7605;SDS011;3844;53.360;9.738;2022-08-01T03:56:58;11.50;;;6.40;;
7605;SDS011;3844;53.360;9.738;2022-08-01T03:58:59;12.88;;;7.03;;
7605;SDS011;3844;53.360;9.738;2022-08-01T04:01:03;13.57;;;7.65;;
7605;SDS011;3844;53.360;9.738;2022-08-01T04:03:06;11.65;;;7.03;;
7605;SDS011;3844;53.360;9.738;2022-08-01T04:05:08;13.18;;;7.72;;
7605;SDS011;3844;53.360;9.738;2022-08-01T04:09:46;11.05;;;6.88;;
7605;SDS011;3844;53.360;9.738;2022-08-01T04:11:47;10.85;;;6.50;;
7605;SDS011;3844;53.360;9.738;2022-08-01T04:13:48;13.73;;;6.95;;
7605;SDS011;3844;53.360;9.738;2022-08-01T04:15:49;10.07;;;6.38;;
7605;SDS011;3844;53.360;9.738;2022-08-01T04:17:49;11.30;;;6.55;;
7605;SDS011;3844;53.360;9.738;2022-08-01T04:19:50;11.32;;;6.70;;
7605;SDS011;3844;53.360;9.738;2022-08-01T04:21:51;10.90;;;6.10;;
7605;SDS011;3844;53.360;9.738;2022-08-01T04:23:51;10.35;;;5.90;;
7605;SDS011;3844;53.360;9.738;2022-08-01T04:25:54;8.05;;;4.82;;
7605;SDS011;3844;53.360;9.738;2022-08-01T04:27:57;9.35;;;5.55;;
7605;SDS011;3844;53.360;9.738;2022-08-01T04:32:01;7.88;;;4.55;;
7605;SDS011;3844;53.360;9.738;2022-08-01T04:34:02;5.70;;;3.80;;
7605;SDS011;3844;53.360;9.738;2022-08-01T04:36:05;9.18;;;4.82;;
7605;SDS011;3844;53.360;9.738;2022-08-01T04:38:08;8.18;;;4.70;;
7605;SDS011;3844;53.360;9.738;2022-08-01T04:40:10;9.00;;;4.60;;
7605;SDS011;3844;53.360;9.738;2022-08-01T04:42:12;9.93;;;4.88;;
7605;SDS011;3844;53.360;9.738;2022-08-01T04:44:15;7.43;;;4.10;;
7605;SDS011;3844;53.360;9.738;2022-08-01T04:46:16;9.35;;;5.38;;
7605;SDS011;3844;53.360;9.738;2022-08-01T04:48:18;9.73;;;4.72;;
7605;SDS011;3844;53.360;9.738;2022-08-01T04:50:20;11.73;;;5.75;;
7605;SDS011;3844;53.360;9.738;2022-08-01T04:52:21;8.00;;;4.90;;
7605;SDS011;3844;53.360;9.738;2022-08-01T04:54:33;8.68;;;5.60;;
7605;SDS011;3844;53.360;9.738;2022-08-01T04:56:37;9.48;;;5.22;;
7605;SDS011;3844;53.360;9.738;2022-08-01T04:58:41;10.18;;;5.90;;
7605;SDS011;3844;53.360;9.738;2022-08-01T05:00:43;8.70;;;5.35;;
7605;SDS011;3844;53.360;9.738;2022-08-01T05:02:43;8.43;;;4.78;;
7605;SDS011;3844;53.360;9.738;2022-08-01T05:04:45;10.13;;;5.45;;
7605;SDS011;3844;53.360;9.738;2022-08-01T05:06:46;8.00;;;4.50;;
7605;SDS011;3844;53.360;9.738;2022-08-01T05:08:47;8.60;;;4.65;;
7605;SDS011;3844;53.360;9.738;2022-08-01T05:10:48;9.32;;;4.43;;
7605;SDS011;3844;53.360;9.738;2022-08-01T05:12:48;8.93;;;4.18;;
7605;SDS011;3844;53.360;9.738;2022-08-01T05:14:50;7.18;;;4.25;;
7605;SDS011;3844;53.360;9.738;2022-08-01T05:16:51;6.53;;;3.40;;
7605;SDS011;3844;53.360;9.738;2022-08-01T05:18:52;6.00;;;3.13;;
7605;SDS011;3844;53.360;9.738;2022-08-01T05:20:53;6.35;;;3.22;;
7605;SDS011;3844;53.360;9.738;2022-08-01T05:22:54;5.50;;;3.05;;
7605;SDS011;3844;53.360;9.738;2022-08-01T05:24:54;5.35;;;2.90;;
7605;SDS011;3844;53.360;9.738;2022-08-01T05:26:55;6.00;;;2.70;;
7605;SDS011;3844;53.360;9.738;2022-08-01T05:28:57;5.13;;;2.58;;
7605;SDS011;3844;53.360;9.738;2022-08-01T05:30:58;7.45;;;2.10;;
7605;SDS011;3844;53.360;9.738;2022-08-01T05:32:58;7.90;;;2.60;;
7605;SDS011;3844;53.360;9.738;2022-08-01T05:34:59;4.80;;;1.83;;
7605;SDS011;3844;53.360;9.738;2022-08-01T05:37:00;6.53;;;2.03;;
7605;SDS011;3844;53.360;9.738;2022-08-01T05:39:00;5.25;;;1.90;;
7605;SDS011;3844;53.360;9.738;2022-08-01T05:41:01;5.97;;;1.70;;
7605;SDS011;3844;53.360;9.738;2022-08-01T05:43:02;9.43;;;1.92;;
7605;SDS011;3844;53.360;9.738;2022-08-01T05:45:03;7.20;;;1.85;;
7605;SDS011;3844;53.360;9.738;2022-08-01T05:47:04;6.93;;;1.65;;
7605;SDS011;3844;53.360;9.738;2022-08-01T05:49:04;6.43;;;1.90;;
7605;SDS011;3844;53.360;9.738;2022-08-01T05:51:05;5.20;;;1.75;;
7605;SDS011;3844;53.360;9.738;2022-08-01T05:53:06;7.30;;;1.73;;
7605;SDS011;3844;53.360;9.738;2022-08-01T05:55:07;6.22;;;1.80;;
7605;SDS011;3844;53.360;9.738;2022-08-01T05:57:09;7.43;;;1.67;;
7605;SDS011;3844;53.360;9.738;2022-08-01T05:59:09;6.05;;;1.45;;
7605;SDS011;3844;53.360;9.738;2022-08-01T06:01:10;4.65;;;1.63;;
7605;SDS011;3844;53.360;9.738;2022-08-01T06:03:15;4.57;;;1.30;;
7605;SDS011;3844;53.360;9.738;2022-08-01T06:05:16;7.07;;;1.60;;
7605;SDS011;3844;53.360;9.738;2022-08-01T06:07:16;5.90;;;1.70;;
7605;SDS011;3844;53.360;9.738;2022-08-01T06:09:17;7.35;;;1.75;;
7605;SDS011;3844;53.360;9.738;2022-08-01T06:11:18;6.05;;;1.60;;
7605;SDS011;3844;53.360;9.738;2022-08-01T06:13:18;6.57;;;1.60;;
7605;SDS011;3844;53.360;9.738;2022-08-01T06:15:19;6.57;;;1.50;;
7605;SDS011;3844;53.360;9.738;2022-08-01T06:17:20;7.47;;;1.60;;
7605;SDS011;3844;53.360;9.738;2022-08-01T06:19:21;6.22;;;1.55;;
7605;SDS011;3844;53.360;9.738;2022-08-01T06:21:21;5.95;;;1.65;;
7605;SDS011;3844;53.360;9.738;2022-08-01T06:23:22;8.40;;;1.88;;
7605;SDS011;3844;53.360;9.738;2022-08-01T06:25:23;7.75;;;1.83;;
7605;SDS011;3844;53.360;9.738;2022-08-01T06:27:23;8.70;;;2.33;;
7605;SDS011;3844;53.360;9.738;2022-08-01T06:29:29;7.93;;;1.90;;
7605;SDS011;3844;53.360;9.738;2022-08-01T06:31:31;5.13;;;1.50;;
7605;SDS011;3844;53.360;9.738;2022-08-01T06:33:32;4.85;;;1.73;;
7605;SDS011;3844;53.360;9.738;2022-08-01T06:35:33;6.20;;;1.60;;
7605;SDS011;3844;53.360;9.738;2022-08-01T06:37:33;6.75;;;1.90;;
7605;SDS011;3844;53.360;9.738;2022-08-01T06:39:34;11.00;;;2.10;;
7605;SDS011;3844;53.360;9.738;2022-08-01T06:41:35;7.93;;;2.38;;
7605;SDS011;3844;53.360;9.738;2022-08-01T06:43:36;7.93;;;1.95;;
7605;SDS011;3844;53.360;9.738;2022-08-01T06:45:37;6.95;;;2.00;;
7605;SDS011;3844;53.360;9.738;2022-08-01T06:47:39;6.43;;;1.90;;
7605;SDS011;3844;53.360;9.738;2022-08-01T06:49:41;6.33;;;1.80;;
7605;SDS011;3844;53.360;9.738;2022-08-01T06:51:41;8.15;;;2.17;;
7605;SDS011;3844;53.360;9.738;2022-08-01T06:53:42;7.50;;;2.40;;
7605;SDS011;3844;53.360;9.738;2022-08-01T06:55:43;9.32;;;2.40;;
7605;SDS011;3844;53.360;9.738;2022-08-01T06:57:48;8.70;;;2.30;;
7605;SDS011;3844;53.360;9.738;2022-08-01T06:59:50;9.07;;;2.50;;
7605;SDS011;3844;53.360;9.738;2022-08-01T07:01:51;10.50;;;2.63;;
7605;SDS011;3844;53.360;9.738;2022-08-01T07:03:51;8.25;;;2.30;;
7605;SDS011;3844;53.360;9.738;2022-08-01T07:05:52;9.48;;;2.22;;
7605;SDS011;3844;53.360;9.738;2022-08-01T07:07:53;7.53;;;2.13;;
7605;SDS011;3844;53.360;9.738;2022-08-01T07:09:54;6.13;;;2.20;;
7605;SDS011;3844;53.360;9.738;2022-08-01T07:11:58;9.82;;;2.22;;
7605;SDS011;3844;53.360;9.738;2022-08-01T07:14:05;10.07;;;2.10;;
7605;SDS011;3844;53.360;9.738;2022-08-01T07:16:25;7.93;;;2.17;;
7605;SDS011;3844;53.360;9.738;2022-08-01T07:18:42;6.53;;;2.03;;
7605;SDS011;3844;53.360;9.738;2022-08-01T07:20:48;8.15;;;2.10;;
7605;SDS011;3844;53.360;9.738;2022-08-01T07:22:56;9.25;;;2.03;;
7605;SDS011;3844;53.360;9.738;2022-08-01T07:25:05;9.35;;;2.20;;
7605;SDS011;3844;53.360;9.738;2022-08-01T07:27:07;7.63;;;2.20;;
7605;SDS011;3844;53.360;9.738;2022-08-01T07:29:08;8.38;;;2.28;;
7605;SDS011;3844;53.360;9.738;2022-08-01T07:31:17;8.55;;;2.30;;
7605;SDS011;3844;53.360;9.738;2022-08-01T07:33:21;9.75;;;1.90;;
7605;SDS011;3844;53.360;9.738;2022-08-01T07:35:22;8.30;;;1.98;;
7605;SDS011;3844;53.360;9.738;2022-08-01T07:37:23;9.45;;;1.90;;
7605;SDS011;3844;53.360;9.738;2022-08-01T07:39:24;10.10;;;2.15;;
7605;SDS011;3844;53.360;9.738;2022-08-01T07:41:25;11.20;;;2.20;;
7605;SDS011;3844;53.360;9.738;2022-08-01T07:43:28;5.75;;;1.90;;
7605;SDS011;3844;53.360;9.738;2022-08-01T07:45:29;10.00;;;2.55;;
7605;SDS011;3844;53.360;9.738;2022-08-01T07:47:30;15.20;;;2.90;;
7605;SDS011;3844;53.360;9.738;2022-08-01T07:49:31;13.32;;;2.60;;
7605;SDS011;3844;53.360;9.738;2022-08-01T07:51:41;13.02;;;2.88;;
7605;SDS011;3844;53.360;9.738;2022-08-01T07:53:42;15.65;;;3.13;;
7605;SDS011;3844;53.360;9.738;2022-08-01T07:55:43;14.32;;;3.17;;
7605;SDS011;3844;53.360;9.738;2022-08-01T07:57:43;13.93;;;2.92;;
7605;SDS011;3844;53.360;9.738;2022-08-01T07:59:47;13.18;;;2.88;;
7605;SDS011;3844;53.360;9.738;2022-08-01T08:01:57;14.25;;;2.80;;
7605;SDS011;3844;53.360;9.738;2022-08-01T08:03:58;15.57;;;3.08;;
7605;SDS011;3844;53.360;9.738;2022-08-01T08:05:59;12.18;;;2.60;;
7605;SDS011;3844;53.360;9.738;2022-08-01T08:08:01;11.88;;;2.70;;
7605;SDS011;3844;53.360;9.738;2022-08-01T08:10:05;12.52;;;2.90;;
7605;SDS011;3844;53.360;9.738;2022-08-01T08:12:06;12.15;;;2.80;;
7605;SDS011;3844;53.360;9.738;2022-08-01T08:14:06;12.77;;;2.97;;
7605;SDS011;3844;53.360;9.738;2022-08-01T08:16:07;13.65;;;3.15;;
7605;SDS011;3844;53.360;9.738;2022-08-01T08:18:09;18.00;;;3.53;;
7605;SDS011;3844;53.360;9.738;2022-08-01T08:20:10;19.10;;;3.22;;
7605;SDS011;3844;53.360;9.738;2022-08-01T08:22:11;17.75;;;3.08;;
7605;SDS011;3844;53.360;9.738;2022-08-01T08:24:14;14.82;;;3.15;;
7605;SDS011;3844;53.360;9.738;2022-08-01T08:26:20;15.77;;;3.13;;
7605;SDS011;3844;53.360;9.738;2022-08-01T08:28:26;12.05;;;3.05;;
7605;SDS011;3844;53.360;9.738;2022-08-01T08:33:22;13.68;;;2.70;;
7605;SDS011;3844;53.360;9.738;2022-08-01T08:38:22;14.75;;;2.42;;
7605;SDS011;3844;53.360;9.738;2022-08-01T08:40:48;8.63;;;2.08;;
7605;SDS011;3844;53.360;9.738;2022-08-01T08:43:28;13.75;;;2.80;;
7605;SDS011;3844;53.360;9.738;2022-08-01T08:48:21;11.13;;;2.15;;
7605;SDS011;3844;53.360;9.738;2022-08-01T08:51:00;14.57;;;2.30;;
7605;SDS011;3844;53.360;9.738;2022-08-01T08:55:51;9.23;;;2.10;;
7605;SDS011;3844;53.360;9.738;2022-08-01T09:02:52;10.68;;;2.20;;
7605;SDS011;3844;53.360;9.738;2022-08-01T09:04:55;12.00;;;2.15;;
7605;SDS011;3844;53.360;9.738;2022-08-01T09:06:57;9.75;;;2.10;;
7605;SDS011;3844;53.360;9.738;2022-08-01T09:08:58;9.55;;;1.80;;
7605;SDS011;3844;53.360;9.738;2022-08-01T09:10:59;10.55;;;1.90;;
7605;SDS011;3844;53.360;9.738;2022-08-01T09:15:12;8.23;;;1.92;;
7605;SDS011;3844;53.360;9.738;2022-08-01T09:17:13;11.82;;;2.30;;
7605;SDS011;3844;53.360;9.738;2022-08-01T09:19:18;9.90;;;2.10;;
7605;SDS011;3844;53.360;9.738;2022-08-01T09:21:20;9.05;;;2.03;;
7605;SDS011;3844;53.360;9.738;2022-08-01T09:25:52;12.65;;;1.90;;
7605;SDS011;3844;53.360;9.738;2022-08-01T09:28:01;9.60;;;1.85;;
7605;SDS011;3844;53.360;9.738;2022-08-01T09:30:11;11.40;;;2.00;;
7605;SDS011;3844;53.360;9.738;2022-08-01T09:32:14;8.32;;;1.70;;
7605;SDS011;3844;53.360;9.738;2022-08-01T09:34:15;7.60;;;1.80;;
7605;SDS011;3844;53.360;9.738;2022-08-01T09:36:16;9.82;;;1.98;;
7605;SDS011;3844;53.360;9.738;2022-08-01T09:38:18;8.73;;;1.80;;
7605;SDS011;3844;53.360;9.738;2022-08-01T09:42:22;7.68;;;1.70;;
7605;SDS011;3844;53.360;9.738;2022-08-01T09:44:37;10.50;;;1.60;;
7605;SDS011;3844;53.360;9.738;2022-08-01T09:46:58;9.60;;;1.70;;
7605;SDS011;3844;53.360;9.738;2022-08-01T09:49:02;6.85;;;1.60;;
7605;SDS011;3844;53.360;9.738;2022-08-01T09:51:05;9.98;;;2.17;;
7605;SDS011;3844;53.360;9.738;2022-08-01T09:53:07;11.95;;;2.08;;
7605;SDS011;3844;53.360;9.738;2022-08-01T09:55:09;8.13;;;1.77;;
7605;SDS011;3844;53.360;9.738;2022-08-01T09:57:11;10.07;;;2.00;;
7605;SDS011;3844;53.360;9.738;2022-08-01T09:59:13;9.75;;;1.77;;
7605;SDS011;3844;53.360;9.738;2022-08-01T10:01:14;8.02;;;1.90;;
7605;SDS011;3844;53.360;9.738;2022-08-01T10:03:19;8.68;;;1.70;;
7605;SDS011;3844;53.360;9.738;2022-08-01T10:05:31;10.07;;;1.90;;
7605;SDS011;3844;53.360;9.738;2022-08-01T10:07:33;9.90;;;1.80;;
7605;SDS011;3844;53.360;9.738;2022-08-01T10:09:35;7.03;;;1.83;;
7605;SDS011;3844;53.360;9.738;2022-08-01T10:11:37;6.90;;;1.60;;
7605;SDS011;3844;53.360;9.738;2022-08-01T10:13:40;7.30;;;1.60;;
7605;SDS011;3844;53.360;9.738;2022-08-01T10:15:40;7.53;;;1.90;;
7605;SDS011;3844;53.360;9.738;2022-08-01T10:17:44;8.40;;;1.63;;
7605;SDS011;3844;53.360;9.738;2022-08-01T10:19:49;9.60;;;1.88;;
7605;SDS011;3844;53.360;9.738;2022-08-01T10:21:54;11.10;;;1.95;;
7605;SDS011;3844;53.360;9.738;2022-08-01T10:23:57;10.18;;;1.70;;
7605;SDS011;3844;53.360;9.738;2022-08-01T10:28:02;7.68;;;1.65;;
7605;SDS011;3844;53.360;9.738;2022-08-01T10:30:10;6.95;;;1.40;;
7605;SDS011;3844;53.360;9.738;2022-08-01T10:32:11;6.40;;;1.20;;
7605;SDS011;3844;53.360;9.738;2022-08-01T10:34:12;9.38;;;1.50;;
7605;SDS011;3844;53.360;9.738;2022-08-01T10:36:24;7.20;;;1.50;;
7605;SDS011;3844;53.360;9.738;2022-08-01T10:38:26;8.02;;;1.60;;
7605;SDS011;3844;53.360;9.738;2022-08-01T10:40:27;8.90;;;1.60;;
7605;SDS011;3844;53.360;9.738;2022-08-01T10:42:29;7.10;;;1.70;;
7605;SDS011;3844;53.360;9.738;2022-08-01T10:44:30;8.00;;;1.50;;
7605;SDS011;3844;53.360;9.738;2022-08-01T10:46:32;10.32;;;1.67;;
7605;SDS011;3844;53.360;9.738;2022-08-01T10:51:01;8.48;;;1.67;;
7605;SDS011;3844;53.360;9.738;2022-08-01T10:53:07;7.68;;;1.45;;
7605;SDS011;3844;53.360;9.738;2022-08-01T10:55:12;7.03;;;1.42;;
7605;SDS011;3844;53.360;9.738;2022-08-01T10:57:13;9.10;;;1.75;;
7605;SDS011;3844;53.360;9.738;2022-08-01T10:59:15;7.47;;;1.65;;
7605;SDS011;3844;53.360;9.738;2022-08-01T11:01:39;8.65;;;1.70;;
7605;SDS011;3844;53.360;9.738;2022-08-01T11:03:41;8.93;;;1.80;;
7605;SDS011;3844;53.360;9.738;2022-08-01T11:05:42;7.28;;;1.50;;
7605;SDS011;3844;53.360;9.738;2022-08-01T11:07:46;7.95;;;1.60;;
7605;SDS011;3844;53.360;9.738;2022-08-01T11:09:59;7.65;;;1.55;;
7605;SDS011;3844;53.360;9.738;2022-08-01T11:12:15;8.55;;;1.58;;
7605;SDS011;3844;53.360;9.738;2022-08-01T11:16:30;7.90;;;1.52;;
7605;SDS011;3844;53.360;9.738;2022-08-01T11:18:32;7.90;;;1.60;;
7605;SDS011;3844;53.360;9.738;2022-08-01T11:20:34;7.40;;;1.40;;
7605;SDS011;3844;53.360;9.738;2022-08-01T11:24:57;10.95;;;1.65;;
7605;SDS011;3844;53.360;9.738;2022-08-01T11:29:37;6.13;;;1.50;;
7605;SDS011;3844;53.360;9.738;2022-08-01T11:31:38;8.10;;;1.52;;
7605;SDS011;3844;53.360;9.738;2022-08-01T11:36:42;8.13;;;1.40;;
7605;SDS011;3844;53.360;9.738;2022-08-01T11:38:27;5.80;;;1.27;;
7605;SDS011;3844;53.360;9.738;2022-08-01T11:40:29;8.05;;;1.60;;
7605;SDS011;3844;53.360;9.738;2022-08-01T11:42:30;6.47;;;1.50;;
7605;SDS011;3844;53.360;9.738;2022-08-01T11:44:33;7.57;;;1.60;;
7605;SDS011;3844;53.360;9.738;2022-08-01T11:49:21;7.50;;;1.30;;
7605;SDS011;3844;53.360;9.738;2022-08-01T11:51:34;7.82;;;1.40;;
7605;SDS011;3844;53.360;9.738;2022-08-01T11:53:34;6.95;;;1.52;;
7605;SDS011;3844;53.360;9.738;2022-08-01T11:55:37;8.98;;;1.73;;
7605;SDS011;3844;53.360;9.738;2022-08-01T11:57:45;6.78;;;1.40;;
7605;SDS011;3844;53.360;9.738;2022-08-01T11:59:47;5.78;;;1.38;;
7605;SDS011;3844;53.360;9.738;2022-08-01T12:01:52;7.32;;;1.50;;
7605;SDS011;3844;53.360;9.738;2022-08-01T12:03:55;9.02;;;1.65;;
7605;SDS011;3844;53.360;9.738;2022-08-01T12:05:56;7.03;;;1.48;;
7605;SDS011;3844;53.360;9.738;2022-08-01T12:07:57;7.65;;;1.48;;
7605;SDS011;3844;53.360;9.738;2022-08-01T12:14:01;8.75;;;1.75;;
7605;SDS011;3844;53.360;9.738;2022-08-01T12:16:06;6.75;;;1.33;;
7605;SDS011;3844;53.360;9.738;2022-08-01T12:18:08;7.28;;;1.40;;
7605;SDS011;3844;53.360;9.738;2022-08-01T12:20:09;8.65;;;1.35;;
7605;SDS011;3844;53.360;9.738;2022-08-01T12:22:12;8.07;;;1.40;;
7605;SDS011;3844;53.360;9.738;2022-08-01T12:24:21;6.30;;;1.40;;
7605;SDS011;3844;53.360;9.738;2022-08-01T12:26:22;7.93;;;1.40;;
7605;SDS011;3844;53.360;9.738;2022-08-01T12:28:23;5.53;;;1.40;;
7605;SDS011;3844;53.360;9.738;2022-08-01T12:30:24;5.93;;;1.10;;
7605;SDS011;3844;53.360;9.738;2022-08-01T12:32:33;6.97;;;1.35;;
7605;SDS011;3844;53.360;9.738;2022-08-01T12:34:36;5.78;;;1.33;;
7605;SDS011;3844;53.360;9.738;2022-08-01T12:36:38;6.90;;;1.50;;
7605;SDS011;3844;53.360;9.738;2022-08-01T12:38:38;5.75;;;1.30;;
7605;SDS011;3844;53.360;9.738;2022-08-01T12:40:40;6.63;;;1.40;;
7605;SDS011;3844;53.360;9.738;2022-08-01T12:42:42;4.53;;;1.20;;
7605;SDS011;3844;53.360;9.738;2022-08-01T12:44:46;5.60;;;1.33;;
7605;SDS011;3844;53.360;9.738;2022-08-01T12:46:51;7.95;;;1.40;;
7605;SDS011;3844;53.360;9.738;2022-08-01T12:48:52;7.53;;;1.42;;
7605;SDS011;3844;53.360;9.738;2022-08-01T12:50:53;7.65;;;1.48;;
7605;SDS011;3844;53.360;9.738;2022-08-01T12:52:57;7.38;;;1.27;;
7605;SDS011;3844;53.360;9.738;2022-08-01T12:55:05;6.38;;;1.50;;
7605;SDS011;3844;53.360;9.738;2022-08-01T12:57:21;7.53;;;1.20;;
7605;SDS011;3844;53.360;9.738;2022-08-01T12:59:24;6.90;;;1.13;;
7605;SDS011;3844;53.360;9.738;2022-08-01T13:01:26;8.00;;;1.33;;
7605;SDS011;3844;53.360;9.738;2022-08-01T13:03:28;6.57;;;1.20;;
7605;SDS011;3844;53.360;9.738;2022-08-01T13:05:40;7.38;;;1.65;;
7605;SDS011;3844;53.360;9.738;2022-08-01T13:07:45;7.37;;;1.50;;
7605;SDS011;3844;53.360;9.738;2022-08-01T13:09:50;9.88;;;1.58;;
7605;SDS011;3844;53.360;9.738;2022-08-01T13:11:51;7.13;;;1.58;;
7605;SDS011;3844;53.360;9.738;2022-08-01T13:13:53;7.47;;;1.40;;
7605;SDS011;3844;53.360;9.738;2022-08-01T13:16:03;7.93;;;1.30;;
7605;SDS011;3844;53.360;9.738;2022-08-01T13:20:31;7.97;;;1.50;;
7605;SDS011;3844;53.360;9.738;2022-08-01T13:22:34;5.65;;;1.30;;
7605;SDS011;3844;53.360;9.738;2022-08-01T13:24:35;6.82;;;1.52;;
7605;SDS011;3844;53.360;9.738;2022-08-01T13:26:49;6.45;;;1.30;;
7605;SDS011;3844;53.360;9.738;2022-08-01T13:29:03;7.78;;;1.58;;
7605;SDS011;3844;53.360;9.738;2022-08-01T13:31:06;8.10;;;1.55;;
7605;SDS011;3844;53.360;9.738;2022-08-01T13:33:07;6.40;;;1.20;;
7605;SDS011;3844;53.360;9.738;2022-08-01T13:35:08;7.40;;;1.50;;
7605;SDS011;3844;53.360;9.738;2022-08-01T13:37:12;6.63;;;1.25;;
7605;SDS011;3844;53.360;9.738;2022-08-01T13:39:12;7.15;;;1.40;;
7605;SDS011;3844;53.360;9.738;2022-08-01T13:41:35;7.13;;;1.50;;
7605;SDS011;3844;53.360;9.738;2022-08-01T13:43:36;6.50;;;1.10;;
7605;SDS011;3844;53.360;9.738;2022-08-01T13:45:37;6.10;;;1.20;;
7605;SDS011;3844;53.360;9.738;2022-08-01T13:47:38;7.00;;;1.30;;